createdAt,value
2018-02-27T00:00:37.469Z,96646.97
2018-02-27T00:03:03.358Z,96653.25
2018-02-27T00:05:31.034Z,96643.98
2018-02-27T00:07:56.932Z,96644.34
2018-02-27T00:10:25.680Z,96640.57
2018-02-27T00:12:51.508Z,96639.70
2018-02-27T00:15:21.069Z,96638.41
2018-02-27T00:17:46.930Z,96640.13
2018-02-27T00:20:12.794Z,96637.58
2018-02-27T00:22:38.656Z,96637.97
2018-02-27T00:25:04.552Z,96635.44
2018-02-27T00:27:32.197Z,96633.73
2018-02-27T00:29:58.058Z,96634.17
2018-02-27T00:32:27.549Z,96627.81
2018-02-27T00:34:53.405Z,96634.52
2018-02-27T00:37:23.136Z,96629.90
2018-02-27T00:39:49.028Z,96631.56
2018-02-27T00:42:16.379Z,96631.55
2018-02-27T00:44:42.309Z,96631.50
2018-02-27T00:47:11.121Z,96623.11
2018-02-27T00:49:36.964Z,96631.50
2018-02-27T00:52:07.050Z,96624.22
2018-02-27T00:54:32.907Z,96622.98
2018-02-27T00:56:58.782Z,96625.49
2018-02-27T00:59:24.655Z,96624.66
2018-02-27T01:01:50.535Z,96622.97
2018-02-27T01:04:18.283Z,96624.22
2018-02-27T01:06:44.175Z,96622.57
2018-02-27T01:09:13.836Z,96622.11
2018-02-27T01:11:39.702Z,96614.53
2018-02-27T01:14:07.269Z,96616.63
2018-02-27T01:16:33.110Z,96618.70
2018-02-27T01:19:06.453Z,96616.66
2018-02-27T01:21:32.350Z,96613.25
2018-02-27T01:23:58.230Z,96611.95
2018-02-27T01:26:24.064Z,96614.49
2018-02-27T01:28:51.262Z,96614.88
2018-02-27T01:31:17.114Z,96613.58
2018-02-27T01:33:42.994Z,96615.69
2018-02-27T01:36:08.857Z,96608.52
2018-02-27T01:38:34.724Z,96604.30
2018-02-27T01:41:03.940Z,96605.03
2018-02-27T01:43:29.830Z,96599.17
2018-02-27T01:45:59.191Z,96602.09
2018-02-27T01:48:25.066Z,96593.23
2018-02-27T01:51:04.800Z,96600.37
2018-02-27T01:53:30.665Z,96597.91
2018-02-27T01:55:56.516Z,96580.15
2018-02-27T01:58:22.388Z,96588.94
2018-02-27T02:00:48.250Z,96592.23
2018-02-27T02:03:14.123Z,96571.08
2018-02-27T02:05:39.972Z,96580.84
2018-02-27T02:08:05.848Z,96582.86
2018-02-27T02:10:31.710Z,96578.59
2018-02-27T02:12:57.599Z,96575.64
2018-02-27T02:15:23.468Z,96571.73
2018-02-27T02:17:49.331Z,96575.00
2018-02-27T02:20:15.226Z,96575.13
2018-02-27T02:22:43.118Z,96570.83
2018-02-27T02:25:09.002Z,96568.76
2018-02-27T02:27:38.584Z,96556.17
2018-02-27T02:30:04.436Z,96565.03
2018-02-27T02:32:33.932Z,96558.70
2018-02-27T02:34:59.790Z,96557.88
2018-02-27T02:37:27.693Z,96556.17
2018-02-27T02:39:53.538Z,96556.20
2018-02-27T02:42:23.314Z,96557.78
2018-02-27T02:44:49.150Z,96554.80
2018-02-27T02:47:15.004Z,96556.91
2018-02-27T02:49:40.872Z,96556.92
2018-02-27T02:52:06.777Z,96552.78
2018-02-27T02:54:33.747Z,96552.01
2018-02-27T02:56:59.597Z,96556.64
2018-02-27T02:59:28.939Z,96547.89
2018-02-27T03:01:54.816Z,96549.98
2018-02-27T03:04:24.522Z,96544.47
2018-02-27T03:06:50.375Z,96546.59
2018-02-27T03:09:17.443Z,96546.16
2018-02-27T03:11:43.320Z,96541.97
2018-02-27T03:14:12.644Z,96547.39
2018-02-27T03:16:38.514Z,96544.00
2018-02-27T03:19:08.227Z,96540.64
2018-02-27T03:21:34.067Z,96543.05
2018-02-27T03:23:59.921Z,96546.02
2018-02-27T03:26:25.775Z,96542.69
2018-02-27T03:28:51.632Z,96539.80
2018-02-27T03:31:18.892Z,96530.52
2018-02-27T03:33:44.770Z,96532.70
2018-02-27T03:36:14.241Z,96529.32
2018-02-27T03:38:40.124Z,96522.59
2018-02-27T03:41:09.707Z,96528.53
2018-02-27T03:43:35.549Z,96528.14
2018-02-27T03:46:03.052Z,96534.75
2018-02-27T03:48:28.915Z,96530.95
2018-02-27T03:50:57.768Z,96530.20
2018-02-27T03:53:23.643Z,96538.18
2018-02-27T03:55:53.271Z,96533.61
2018-02-27T03:58:19.106Z,96531.90
2018-02-27T04:00:44.971Z,96521.83
2018-02-27T04:03:10.825Z,96520.94
2018-02-27T04:05:36.673Z,96523.47
2018-02-27T04:08:04.366Z,96520.92
2018-02-27T04:10:30.230Z,96514.52
2018-02-27T04:13:00.008Z,96517.48
2018-02-27T04:15:25.847Z,96515.04
2018-02-27T04:17:55.093Z,96510.80
2018-02-27T04:20:20.951Z,96512.52
2018-02-27T04:22:48.326Z,96509.97
2018-02-27T04:25:14.169Z,96506.13
2018-02-27T04:27:42.863Z,96507.38
2018-02-27T04:30:08.680Z,96505.73
2018-02-27T04:32:38.065Z,96513.22
2018-02-27T04:35:03.972Z,96504.82
2018-02-27T04:37:29.842Z,96501.45
2018-02-27T04:39:55.686Z,96506.47
2018-02-27T04:42:21.577Z,96510.66
2018-02-27T04:44:49.133Z,96511.13
2018-02-27T04:47:14.989Z,96513.56
2018-02-27T04:52:11.816Z,96514.30
2018-02-27T04:54:39.373Z,96507.55
2018-02-27T04:57:05.245Z,96507.14
2018-02-27T04:59:34.950Z,96509.64
2018-02-27T05:02:00.828Z,96511.81
2018-02-27T05:04:28.512Z,96502.61
2018-02-27T05:06:54.415Z,96505.14
2018-02-27T05:09:23.380Z,96509.29
2018-02-27T05:11:49.205Z,96508.84
2018-02-27T05:14:15.110Z,96500.52
2018-02-27T05:16:40.987Z,96500.94
2018-02-27T05:19:06.871Z,96500.99
2018-02-27T05:21:34.596Z,96491.69
2018-02-27T05:26:50.394Z,96491.62
2018-02-27T05:29:16.308Z,96493.18
2018-02-27T05:31:42.167Z,96501.22
2018-02-27T05:34:08.058Z,96499.86
2018-02-27T05:36:33.924Z,96493.16
2018-02-27T05:38:59.783Z,96485.07
2018-02-27T05:41:25.642Z,96491.73
2018-02-27T05:43:51.525Z,96489.06
2018-02-27T05:46:17.408Z,96496.66
2018-02-27T05:48:43.481Z,96492.89
2018-02-27T05:51:09.386Z,96493.73
2018-02-27T05:53:35.276Z,96493.80
2018-02-27T05:56:01.122Z,96489.58
2018-02-27T05:58:26.972Z,96496.39
2018-02-27T06:00:52.848Z,96495.58
2018-02-27T06:03:18.745Z,96499.30
2018-02-27T06:05:44.600Z,96500.17
2018-02-27T06:08:10.494Z,96505.59
2018-02-27T06:10:36.379Z,96509.77
2018-02-27T06:13:05.658Z,96510.15
2018-02-27T06:15:31.494Z,96507.63
2018-02-27T06:17:58.771Z,96505.06
2018-02-27T06:20:24.612Z,96505.95
2018-02-27T06:22:53.402Z,96505.09
2018-02-27T06:25:19.252Z,96505.13
2018-02-27T06:27:45.163Z,96502.25
2018-02-27T06:30:11.048Z,96505.16
2018-02-27T06:32:36.929Z,96509.30
2018-02-27T06:35:05.896Z,96510.98
2018-02-27T06:37:31.731Z,96507.30
2018-02-27T06:40:01.468Z,96507.41
2018-02-27T06:42:27.316Z,96507.44
2018-02-27T06:44:54.609Z,96510.42
2018-02-27T06:47:20.448Z,96509.61
2018-02-27T06:49:49.726Z,96508.36
2018-02-27T06:52:15.620Z,96501.28
2018-02-27T06:54:44.625Z,96502.97
2018-02-27T06:57:10.466Z,96499.70
2018-02-27T06:59:39.780Z,96496.28
2018-02-27T07:02:05.645Z,96498.94
2018-02-27T07:04:31.521Z,96501.91
2018-02-27T07:06:57.363Z,96501.95
2018-02-27T07:09:23.224Z,96499.52
2018-02-27T07:11:52.373Z,96500.36
2018-02-27T07:14:18.221Z,96502.53
2018-02-27T07:16:45.706Z,96501.86
2018-02-27T07:19:11.577Z,96504.84
2018-02-27T07:21:41.137Z,96497.02
2018-02-27T07:24:07.005Z,96494.09
2018-02-27T07:26:34.621Z,96498.78
2018-02-27T07:29:00.462Z,96503.52
2018-02-27T07:31:29.105Z,96504.00
2018-02-27T07:33:54.947Z,96504.00
2018-02-27T07:38:51.666Z,96501.54
2018-02-27T07:44:09.332Z,96496.06
2018-02-27T07:46:35.228Z,96493.97
2018-02-27T07:49:01.111Z,96491.00
2018-02-27T07:51:26.941Z,96495.61
2018-02-27T07:53:52.819Z,96497.33
2018-02-27T07:56:18.670Z,96497.77
2018-02-27T07:58:44.535Z,96496.97
2018-02-27T08:01:10.374Z,96498.28
2018-02-27T08:03:36.233Z,96492.38
2018-02-27T08:06:02.110Z,96488.86
2018-02-27T08:08:28.002Z,96481.48
2018-02-27T08:10:53.860Z,96483.75
2018-02-27T08:13:19.685Z,96484.83
2018-02-27T08:15:45.549Z,96482.18
2018-02-27T08:18:11.415Z,96475.09
2018-02-27T08:20:37.279Z,96485.27
2018-02-27T08:23:03.133Z,96482.89
2018-02-27T08:25:28.987Z,96486.61
2018-02-27T08:27:54.820Z,96490.80
2018-02-27T08:30:20.657Z,96492.02
2018-02-27T08:32:46.496Z,96494.67
2018-02-27T08:35:12.308Z,96490.34
2018-02-27T08:37:38.232Z,96496.94
2018-02-27T08:40:05.700Z,96491.72
2018-02-27T08:42:31.529Z,96491.45
2018-02-27T08:45:00.454Z,96490.84
2018-02-27T08:47:26.328Z,96490.71
2018-02-27T08:49:55.833Z,96487.09
2018-02-27T08:52:21.696Z,96485.61
2018-02-27T08:54:47.537Z,96482.20
2018-02-27T08:57:13.426Z,96480.39
2018-02-27T08:59:39.261Z,96481.11
2018-02-27T09:02:06.375Z,96482.48
2018-02-27T09:04:32.244Z,96481.11
2018-02-27T09:07:01.196Z,96477.21
2018-02-27T09:09:27.064Z,96473.45
2018-02-27T09:14:23.835Z,96468.61
2018-02-27T09:16:51.367Z,96461.44
2018-02-27T09:19:17.861Z,96457.48
2018-02-27T09:21:45.145Z,96457.14
2018-02-27T09:24:11.532Z,96465.88
2018-02-27T09:26:40.855Z,96465.63
2018-02-27T09:29:06.716Z,96462.20
2018-02-27T09:31:32.588Z,96453.83
2018-02-27T09:33:58.481Z,96449.19
2018-02-27T09:36:24.331Z,96451.38
2018-02-27T09:38:53.325Z,96451.48
2018-02-27T09:41:19.191Z,96452.29
2018-02-27T09:43:46.584Z,96448.28
2018-02-27T09:46:12.427Z,96451.00
2018-02-27T09:48:42.199Z,96456.14
2018-02-27T09:51:08.129Z,96457.05
2018-02-27T09:53:37.215Z,96462.43
2018-02-27T09:56:03.062Z,96460.57
2018-02-27T09:58:30.576Z,96460.27
2018-02-27T10:00:56.439Z,96465.30
2018-02-27T10:03:25.186Z,96457.14
2018-02-27T10:05:51.046Z,96459.41
2018-02-27T10:08:16.969Z,96465.72
2018-02-27T10:10:42.764Z,96466.09
2018-02-27T10:13:08.616Z,96456.34
2018-02-27T10:15:38.415Z,96455.47
2018-02-27T10:18:04.283Z,96455.11
2018-02-27T10:20:31.850Z,96460.50
2018-02-27T10:22:57.721Z,96456.02
2018-02-27T10:25:27.156Z,96448.42
2018-02-27T10:27:52.997Z,96457.03
2018-02-27T10:30:22.712Z,96463.33
2018-02-27T10:32:48.541Z,96456.46
2018-02-27T10:35:16.297Z,96461.66
2018-02-27T10:37:42.154Z,96466.42
2018-02-27T10:40:12.032Z,96463.87
2018-02-27T10:42:37.892Z,96459.48
2018-02-27T10:45:03.748Z,96458.02
2018-02-27T10:47:29.610Z,96459.90
2018-02-27T10:49:55.462Z,96457.63
2018-02-27T10:52:22.199Z,96456.81
2018-02-27T10:54:48.062Z,96455.45
2018-02-27T10:59:44.803Z,96443.41
2018-02-27T11:02:12.004Z,96453.42
2018-02-27T11:04:37.896Z,96454.99
2018-02-27T11:07:06.666Z,96452.86
2018-02-27T11:09:32.503Z,96458.19
2018-02-27T11:12:01.208Z,96453.23
2018-02-27T11:14:27.062Z,96452.63
2018-02-27T11:16:56.394Z,96451.64
2018-02-27T11:19:22.254Z,96444.48
2018-02-27T11:21:48.105Z,96446.20
2018-02-27T11:24:13.962Z,96441.41
2018-02-27T11:26:39.780Z,96440.84
2018-02-27T11:29:09.383Z,96436.23
2018-02-27T11:31:35.274Z,96434.56
2018-02-27T11:34:04.149Z,96434.41
2018-02-27T11:36:29.997Z,96437.53
2018-02-27T11:38:57.433Z,96427.53
2018-02-27T11:41:23.304Z,96436.20
2018-02-27T11:43:52.984Z,96426.22
2018-02-27T11:46:18.827Z,96427.08
2018-02-27T11:48:49.229Z,96430.44
2018-02-27T11:51:15.126Z,96427.67
2018-02-27T11:53:41.480Z,96426.19
2018-02-27T11:56:07.328Z,96426.75
2018-02-27T11:58:33.194Z,96425.86
2018-02-27T12:00:59.060Z,96427.20
2018-02-27T12:03:24.934Z,96418.70
2018-02-27T12:05:54.309Z,96421.38
2018-02-27T12:08:20.159Z,96415.97
2018-02-27T12:10:48.056Z,96420.13
2018-02-27T12:13:13.890Z,96416.03
2018-02-27T12:15:43.564Z,96415.88
2018-02-27T12:18:09.402Z,96408.27
2018-02-27T12:20:37.138Z,96409.66
2018-02-27T12:23:02.992Z,96412.14
2018-02-27T12:25:31.756Z,96412.95
2018-02-27T12:27:57.631Z,96411.34
2018-02-27T12:30:26.491Z,96403.20
2018-02-27T12:32:52.340Z,96405.98
2018-02-27T12:35:18.202Z,96395.75
2018-02-27T12:37:44.041Z,96397.05
2018-02-27T12:40:09.897Z,96388.03
2018-02-27T12:42:39.549Z,96393.73
2018-02-27T12:45:05.396Z,96392.50
2018-02-27T12:47:33.018Z,96388.72
2018-02-27T12:49:58.853Z,96391.59
2018-02-27T12:52:27.537Z,96387.30
2018-02-27T12:54:53.418Z,96393.56
2018-02-27T12:59:50.036Z,96386.35
2018-02-27T13:02:17.270Z,96385.00
2018-02-27T13:04:43.092Z,96386.27
2018-02-27T13:07:12.448Z,96383.58
2018-02-27T13:09:38.331Z,96382.30
2018-02-27T13:12:04.233Z,96382.85
2018-02-27T13:14:30.082Z,96378.09
2018-02-27T13:16:55.945Z,96386.80
2018-02-27T13:19:24.999Z,96376.19
2018-02-27T13:21:50.855Z,96383.58
2018-02-27T13:24:18.449Z,96378.77
2018-02-27T13:26:44.310Z,96375.47
2018-02-27T13:29:13.089Z,96374.45
2018-02-27T13:31:38.943Z,96378.39
2018-02-27T13:34:08.277Z,96377.38
2018-02-27T13:36:34.150Z,96379.00
2018-02-27T13:39:03.774Z,96377.25
2018-02-27T13:41:29.608Z,96368.28
2018-02-27T13:43:57.073Z,96371.08
2018-02-27T13:46:22.938Z,96376.40
2018-02-27T13:48:49.652Z,96382.50
2018-02-27T13:51:15.577Z,96383.60
2018-02-27T13:53:41.425Z,96373.20
2018-02-27T13:56:08.803Z,96372.87
2018-02-27T13:58:34.647Z,96371.23
2018-02-27T14:01:03.533Z,96381.36
2018-02-27T14:03:29.374Z,96377.44
2018-02-27T14:05:58.337Z,96368.06
2018-02-27T14:08:24.211Z,96374.75
2018-02-27T14:10:53.612Z,96371.81
2018-02-27T14:13:19.452Z,96368.03
2018-02-27T14:15:49.220Z,96368.52
2018-02-27T14:18:15.122Z,96364.56
2018-02-27T14:20:43.969Z,96362.95
2018-02-27T14:23:09.810Z,96355.00
2018-02-27T14:25:35.673Z,96352.50
2018-02-27T14:28:01.514Z,96349.66
2018-02-27T14:30:27.365Z,96344.84
2018-02-27T14:32:54.165Z,96349.22
2018-02-27T14:35:20.026Z,96344.71
2018-02-27T14:37:49.649Z,96345.84
2018-02-27T14:40:15.492Z,96341.48
2018-02-27T14:42:44.369Z,96339.32
2018-02-27T14:45:10.227Z,96342.92
2018-02-27T14:47:39.788Z,96341.33
2018-02-27T14:50:05.683Z,96335.33
2018-02-27T14:52:33.059Z,96337.70
2018-02-27T14:54:58.918Z,96337.66
2018-02-27T14:57:28.625Z,96341.27
2018-02-27T14:59:54.463Z,96342.50
2018-02-27T15:02:20.329Z,96340.44
2018-02-27T15:04:46.180Z,96336.61
2018-02-27T15:07:12.000Z,96334.45
2018-02-27T15:09:39.762Z,96341.23
2018-02-27T15:12:05.611Z,96330.28
2018-02-27T15:14:35.079Z,96335.14
2018-02-27T15:17:00.908Z,96342.34
2018-02-27T15:19:30.340Z,96337.64
2018-02-27T15:21:56.185Z,96336.31
2018-02-27T15:24:23.605Z,96338.42
2018-02-27T15:26:49.449Z,96332.64
2018-02-27T15:29:18.289Z,96338.97
2018-02-27T15:31:44.174Z,96330.45
2018-02-27T15:34:13.558Z,96330.50
2018-02-27T15:36:39.433Z,96334.06
2018-02-27T15:39:05.260Z,96341.73
2018-02-27T15:41:31.132Z,96338.83
2018-02-27T15:43:57.014Z,96337.06
2018-02-27T15:46:25.851Z,96340.13
2018-02-27T15:48:52.896Z,96348.52
2018-02-27T15:51:20.149Z,96352.13
2018-02-27T15:53:46.017Z,96352.98
2018-02-27T15:56:15.111Z,96348.39
2018-02-27T15:58:40.960Z,96348.86
2018-02-27T16:01:10.471Z,96352.69
2018-02-27T16:03:36.323Z,96348.36
2018-02-27T16:06:03.536Z,96348.49
2018-02-27T16:08:29.370Z,96348.37
2018-02-27T16:13:26.180Z,96345.29
2018-02-27T16:15:52.097Z,96351.55
2018-02-27T16:18:17.898Z,96346.30
2018-02-27T16:20:43.765Z,96346.25
2018-02-27T16:23:10.449Z,96353.84
2018-02-27T16:25:36.338Z,96356.16
2018-02-27T16:28:05.358Z,96357.58
2018-02-27T16:30:31.226Z,96360.25
2018-02-27T16:33:00.621Z,96356.23
2018-02-27T16:35:26.470Z,96361.26
2018-02-27T16:37:55.641Z,96360.78
2018-02-27T16:40:21.580Z,96367.99
2018-02-27T16:42:50.750Z,96377.67
2018-02-27T16:45:16.669Z,96380.55
2018-02-27T16:47:43.887Z,96385.36
2018-02-27T16:50:09.741Z,96394.18
2018-02-27T16:52:35.613Z,96391.28
2018-02-27T16:55:01.460Z,96395.61
2018-02-27T16:57:27.291Z,96391.14
2018-02-27T16:59:56.918Z,96390.75
2018-02-27T17:02:22.779Z,96393.80
2018-02-27T17:04:51.877Z,96400.08
2018-02-27T17:07:17.694Z,96401.27
2018-02-27T17:09:44.980Z,96400.88
2018-02-27T17:12:10.862Z,96410.56
2018-02-27T17:14:39.974Z,96405.48
2018-02-27T17:17:05.854Z,96408.48
2018-02-27T17:19:35.072Z,96406.37
2018-02-27T17:22:01.010Z,96411.03
2018-02-27T17:24:30.411Z,96417.40
2018-02-27T17:26:56.250Z,96411.50
2018-02-27T17:29:22.101Z,96415.70
2018-02-27T17:31:47.975Z,96418.66
2018-02-27T17:34:13.854Z,96417.79
2018-02-27T17:36:40.867Z,96423.70
2018-02-27T17:39:08.069Z,96414.89
2018-02-27T17:41:35.579Z,96419.09
2018-02-27T17:44:01.458Z,96418.76
2018-02-27T17:46:30.215Z,96418.81
2018-02-27T17:48:56.100Z,96421.76
2018-02-27T17:51:25.572Z,96424.01
2018-02-27T17:53:51.404Z,96423.66
2018-02-27T17:56:20.525Z,96424.64
2018-02-27T17:58:46.427Z,96428.93
2018-02-27T18:01:15.441Z,96428.94
2018-02-27T18:03:41.312Z,96428.91
2018-02-27T18:06:07.296Z,96426.37
2018-02-27T18:08:33.256Z,96422.96
2018-02-27T18:10:59.145Z,96419.16
2018-02-27T18:13:26.835Z,96419.56
2018-02-27T18:15:52.728Z,96424.19
2018-02-27T18:18:21.952Z,96416.15
2018-02-27T18:20:47.813Z,96417.83
2018-02-27T18:23:17.014Z,96418.67
2018-02-27T18:25:42.882Z,96405.58
2018-02-27T18:28:10.309Z,96419.14
2018-02-27T18:30:36.158Z,96414.05
2018-02-27T18:33:05.639Z,96406.89
2018-02-27T18:35:31.521Z,96406.91
2018-02-27T18:38:00.464Z,96407.78
2018-02-27T18:40:26.321Z,96414.12
2018-02-27T18:42:52.196Z,96414.15
2018-02-27T18:45:18.069Z,96411.20
2018-02-27T18:47:43.953Z,96411.63
2018-02-27T18:50:13.059Z,96412.05
2018-02-27T18:52:38.923Z,96410.37
2018-02-27T18:55:06.170Z,96407.41
2018-02-27T18:57:32.036Z,96409.13
2018-02-27T19:00:00.837Z,96401.52
2018-02-27T19:02:26.684Z,96406.61
2018-02-27T19:04:55.454Z,96407.89
2018-02-27T19:07:21.300Z,96403.64
2018-02-27T19:09:50.153Z,96406.67
2018-02-27T19:12:16.060Z,96403.73
2018-02-27T19:14:44.895Z,96414.69
2018-02-27T19:17:10.730Z,96410.48
2018-02-27T19:19:36.580Z,96413.42
2018-02-27T19:22:02.441Z,96411.77
2018-02-27T19:24:28.275Z,96415.98
2018-02-27T19:26:57.383Z,96411.77
2018-02-27T19:29:23.204Z,96415.96
2018-02-27T19:31:52.363Z,96414.28
2018-02-27T19:34:18.193Z,96412.61
2018-02-27T19:36:47.538Z,96419.36
2018-02-27T19:39:15.872Z,96405.89
2018-02-27T19:41:41.975Z,96409.66
2018-02-27T19:44:07.841Z,96407.55
2018-02-27T19:46:36.741Z,96408.84
2018-02-27T19:49:02.580Z,96408.83
2018-02-27T19:51:31.931Z,96411.37
2018-02-27T19:53:57.777Z,96408.84
2018-02-27T19:56:23.623Z,96407.16
2018-02-27T19:58:49.469Z,96407.56
2018-02-27T20:01:15.306Z,96411.77
2018-02-27T20:03:41.824Z,96410.52
2018-02-27T20:06:07.673Z,96412.66
2018-02-27T20:11:04.516Z,96413.50
2018-02-27T20:13:31.374Z,96410.13
2018-02-27T20:15:57.221Z,96408.84
2018-02-27T20:18:25.952Z,96418.97
2018-02-27T20:20:51.800Z,96414.33
2018-02-27T20:23:23.783Z,96416.02
2018-02-27T20:25:49.667Z,96409.70
2018-02-27T20:28:21.602Z,96418.14
2018-02-27T20:30:47.478Z,96413.91
2018-02-27T20:33:13.307Z,96416.84
2018-02-27T20:35:39.145Z,96423.17
2018-02-27T20:38:04.989Z,96416.86
2018-02-27T20:40:30.879Z,96421.90
2018-02-27T20:42:56.721Z,96425.70
2018-02-27T20:45:22.572Z,96425.27
2018-02-27T20:47:48.416Z,96429.49
2018-02-27T20:50:17.338Z,96430.72
2018-02-27T20:52:43.198Z,96430.33
2018-02-27T20:55:12.697Z,96430.72
2018-02-27T20:57:38.561Z,96428.20
2018-02-27T21:00:07.862Z,96433.67
2018-02-27T21:02:33.689Z,96430.69
2018-02-27T21:05:01.358Z,96431.95
2018-02-27T21:07:27.225Z,96431.09
2018-02-27T21:09:53.311Z,96427.31
2018-02-27T21:12:19.150Z,96432.73
2018-02-27T21:14:45.006Z,96427.69
2018-02-27T21:17:14.143Z,96430.17
2018-02-27T21:19:40.048Z,96430.56
2018-02-27T21:22:09.066Z,96426.72
2018-02-27T21:24:37.146Z,96419.50
2018-02-27T21:27:03.147Z,96429.61
2018-02-27T21:29:29.030Z,96426.66
2018-02-27T21:31:56.713Z,96427.53
2018-02-27T21:34:22.560Z,96428.81
2018-02-27T21:36:51.562Z,96430.50
2018-02-27T21:39:17.412Z,96425.44
2018-02-27T21:41:47.074Z,96429.59
2018-02-27T21:44:12.893Z,96431.66
2018-02-27T21:46:38.780Z,96435.87
2018-02-27T21:49:04.630Z,96435.44
2018-02-27T21:51:30.526Z,96430.80
2018-02-27T21:53:57.886Z,96428.26
2018-02-27T21:56:23.765Z,96432.83
2018-02-27T21:58:52.442Z,96438.28
2018-02-27T22:01:18.323Z,96430.34
2018-02-27T22:03:46.955Z,96427.81
2018-02-27T22:06:12.815Z,96423.15
2018-02-27T22:11:09.519Z,96419.78
2018-02-27T22:13:38.485Z,96417.28
2018-02-27T22:16:04.362Z,96419.76
2018-02-27T22:18:31.805Z,96410.09
2018-02-27T22:20:57.655Z,96413.86
2018-02-27T22:23:23.544Z,96418.01
2018-02-27T22:25:49.402Z,96412.91
2018-02-27T22:28:15.257Z,96420.84
2018-02-27T22:30:43.040Z,96412.41
2018-02-27T22:33:08.888Z,96420.84
2018-02-27T22:38:05.625Z,96422.64
2018-02-27T22:40:32.610Z,96420.53
2018-02-27T22:42:58.457Z,96426.02
2018-02-27T22:45:27.823Z,96415.43
2018-02-27T22:47:53.666Z,96420.45
2018-02-27T22:50:23.199Z,96420.33
2018-02-27T22:52:49.052Z,96415.64
2018-02-27T22:55:16.732Z,96412.30
2018-02-27T23:00:35.950Z,96396.70
2018-02-27T23:03:01.802Z,96397.11
2018-02-27T23:05:27.676Z,96399.22
2018-02-27T23:07:53.559Z,96397.97
2018-02-27T23:10:19.431Z,96404.69
2018-02-27T23:12:45.272Z,96403.86
2018-02-27T23:15:11.102Z,96402.55
2018-02-27T23:17:36.974Z,96400.49
2018-02-27T23:20:02.844Z,96397.98
2018-02-27T23:22:28.688Z,96396.66
2018-02-27T23:28:02.137Z,96403.13
2018-02-27T23:30:29.487Z,96400.19
2018-02-27T23:32:57.233Z,96399.35
2018-02-27T23:35:26.054Z,96388.02
2018-02-27T23:37:51.901Z,96389.73
2018-02-27T23:40:17.843Z,96394.35
2018-02-27T23:42:43.687Z,96391.02
2018-02-27T23:45:09.523Z,96399.41
2018-02-27T23:47:35.397Z,96401.56
2018-02-27T23:50:01.238Z,96381.33
2018-02-27T23:52:27.077Z,96390.61
2018-02-27T23:54:52.934Z,96391.83
